sensor_id;sensor_type;location;lat;lon;timestamp;pressure;altitude;pressure_sealevel;temperature;humidity
20023;BME280;10172;42.054;24.546;2023-12-04T00:01:09;98568.94;;;5.85;100.00
20023;BME280;10172;42.054;24.546;2023-12-04T00:03:34;98568.94;;;5.45;100.00
20023;BME280;10172;42.054;24.546;2023-12-04T00:06:00;98591.59;;;5.49;100.00
20023;BME280;10172;42.054;24.546;2023-12-04T00:08:25;98608.84;;;5.78;100.00
20023;BME280;10172;42.054;24.546;2023-12-04T00:10:50;98581.28;;;5.65;100.00
20023;BME280;10172;42.054;24.546;2023-12-04T00:13:17;98603.53;;;5.99;100.00
20023;BME280;10172;42.054;24.546;2023-12-04T00:15:44;98599.81;;;5.83;100.00
20023;BME280;10172;42.054;24.546;2023-12-04T00:18:09;98618.28;;;5.83;100.00
20023;BME280;10172;42.054;24.546;2023-12-04T00:20:34;98596.63;;;5.55;100.00
20023;BME280;10172;42.054;24.546;2023-12-04T00:23:00;98623.03;;;5.55;100.00
20023;BME280;10172;42.054;24.546;2023-12-04T00:25:26;98518.63;;;4.88;100.00
20023;BME280;10172;42.054;24.546;2023-12-04T00:27:51;98584.56;;;5.29;100.00
20023;BME280;10172;42.054;24.546;2023-12-04T00:30:17;98657.88;;;5.83;100.00
20023;BME280;10172;42.054;24.546;2023-12-04T00:32:42;98609.56;;;5.61;100.00
20023;BME280;10172;42.054;24.546;2023-12-04T00:35:08;98644.34;;;5.71;100.00
20023;BME280;10172;42.054;24.546;2023-12-04T00:37:33;98629.22;;;5.74;100.00
20023;BME280;10172;42.054;24.546;2023-12-04T00:40:02;98599.41;;;5.72;100.00
20023;BME280;10172;42.054;24.546;2023-12-04T00:42:29;98597.53;;;5.34;100.00
20023;BME280;10172;42.054;24.546;2023-12-04T00:44:54;98631.09;;;5.72;100.00
20023;BME280;10172;42.054;24.546;2023-12-04T00:47:20;98605.63;;;5.51;100.00
20023;BME280;10172;42.054;24.546;2023-12-04T00:49:45;98600.97;;;5.36;100.00
20023;BME280;10172;42.054;24.546;2023-12-04T00:52:10;98631.50;;;5.83;100.00
20023;BME280;10172;42.054;24.546;2023-12-04T00:54:39;98629.31;;;5.73;100.00
20023;BME280;10172;42.054;24.546;2023-12-04T00:57:04;98625.13;;;5.47;100.00
20023;BME280;10172;42.054;24.546;2023-12-04T00:59:30;98621.44;;;5.51;100.00
20023;BME280;10172;42.054;24.546;2023-12-04T01:01:55;98659.25;;;5.72;100.00
20023;BME280;10172;42.054;24.546;2023-12-04T01:04:20;98666.09;;;5.97;100.00
20023;BME280;10172;42.054;24.546;2023-12-04T01:06:46;98649.09;;;5.83;100.00
20023;BME280;10172;42.054;24.546;2023-12-04T01:09:11;98675.50;;;5.83;100.00
20023;BME280;10172;42.054;24.546;2023-12-04T01:11:37;98522.44;;;4.80;100.00
20023;BME280;10172;42.054;24.546;2023-12-04T01:14:02;98680.38;;;5.72;100.00
20023;BME280;10172;42.054;24.546;2023-12-04T01:16:27;98619.69;;;5.30;100.00
20023;BME280;10172;42.054;24.546;2023-12-04T01:18:53;98633.84;;;5.27;100.00
20023;BME280;10172;42.054;24.546;2023-12-04T01:21:19;98661.09;;;5.28;100.00
20023;BME280;10172;42.054;24.546;2023-12-04T01:23:44;98666.56;;;5.45;100.00
20023;BME280;10172;42.054;24.546;2023-12-04T01:26:10;98686.47;;;5.52;100.00
20023;BME280;10172;42.054;24.546;2023-12-04T01:28:35;98655.75;;;5.51;100.00
20023;BME280;10172;42.054;24.546;2023-12-04T01:31:00;98677.88;;;5.69;100.00
20023;BME280;10172;42.054;24.546;2023-12-04T01:33:26;98686.00;;;5.42;100.00
20023;BME280;10172;42.054;24.546;2023-12-04T01:35:51;98649.84;;;5.03;100.00
20023;BME280;10172;42.054;24.546;2023-12-04T01:38:17;98650.31;;;4.91;100.00
20023;BME280;10172;42.054;24.546;2023-12-04T01:40:43;98671.16;;;4.97;100.00
20023;BME280;10172;42.054;24.546;2023-12-04T01:43:08;98657.88;;;5.00;100.00
20023;BME280;10172;42.054;24.546;2023-12-04T01:45:33;98627.97;;;4.77;100.00
20023;BME280;10172;42.054;24.546;2023-12-04T01:47:59;98651.75;;;4.98;100.00
20023;BME280;10172;42.054;24.546;2023-12-04T01:50:24;98634.22;;;4.75;100.00
20023;BME280;10172;42.054;24.546;2023-12-04T01:52:51;98640.22;;;5.22;100.00
20023;BME280;10172;42.054;24.546;2023-12-04T01:55:17;98651.66;;;5.01;100.00
20023;BME280;10172;42.054;24.546;2023-12-04T01:57:43;98651.91;;;4.95;100.00
20023;BME280;10172;42.054;24.546;2023-12-04T02:00:09;98643.63;;;5.04;100.00
20023;BME280;10172;42.054;24.546;2023-12-04T02:02:40;98615.28;;;4.65;100.00
20023;BME280;10172;42.054;24.546;2023-12-04T02:05:08;98675.38;;;5.01;100.00
20023;BME280;10172;42.054;24.546;2023-12-04T02:07:33;98693.03;;;4.99;100.00
20023;BME280;10172;42.054;24.546;2023-12-04T02:09:59;98673.06;;;5.15;100.00
20023;BME280;10172;42.054;24.546;2023-12-04T02:12:25;98675.25;;;5.04;100.00
20023;BME280;10172;42.054;24.546;2023-12-04T02:14:51;98648.00;;;4.81;100.00
20023;BME280;10172;42.054;24.546;2023-12-04T02:17:18;98682.47;;;4.77;100.00
20023;BME280;10172;42.054;24.546;2023-12-04T02:19:44;98669.94;;;4.83;100.00
20023;BME280;10172;42.054;24.546;2023-12-04T02:22:10;98665.09;;;4.95;100.00
20023;BME280;10172;42.054;24.546;2023-12-04T02:24:35;98682.88;;;5.11;100.00
20023;BME280;10172;42.054;24.546;2023-12-04T02:27:16;98709.19;;;5.13;100.00
20023;BME280;10172;42.054;24.546;2023-12-04T02:30:01;98735.81;;;4.83;100.00
20023;BME280;10172;42.054;24.546;2023-12-04T02:32:31;98719.94;;;4.85;100.00
20023;BME280;10172;42.054;24.546;2023-12-04T02:35:02;98712.38;;;4.99;100.00
20023;BME280;10172;42.054;24.546;2023-12-04T02:37:29;98707.56;;;5.09;100.00
20023;BME280;10172;42.054;24.546;2023-12-04T02:39:55;98696.44;;;5.24;100.00
20023;BME280;10172;42.054;24.546;2023-12-04T02:42:22;98702.28;;;5.32;100.00
20023;BME280;10172;42.054;24.546;2023-12-04T02:44:50;98709.50;;;5.27;100.00
20023;BME280;10172;42.054;24.546;2023-12-04T02:47:16;98714.69;;;5.07;100.00
20023;BME280;10172;42.054;24.546;2023-12-04T02:49:41;98699.19;;;4.99;100.00
20023;BME280;10172;42.054;24.546;2023-12-04T02:52:06;98703.06;;;5.34;100.00
20023;BME280;10172;42.054;24.546;2023-12-04T02:54:32;98660.53;;;4.53;100.00
20023;BME280;10172;42.054;24.546;2023-12-04T02:56:57;98728.22;;;4.98;100.00
20023;BME280;10172;42.054;24.546;2023-12-04T02:59:22;98730.41;;;4.63;100.00
20023;BME280;10172;42.054;24.546;2023-12-04T03:01:48;98733.28;;;4.57;100.00
20023;BME280;10172;42.054;24.546;2023-12-04T03:04:13;98716.44;;;4.61;100.00
20023;BME280;10172;42.054;24.546;2023-12-04T03:06:38;98738.91;;;4.95;100.00
20023;BME280;10172;42.054;24.546;2023-12-04T03:09:04;98753.50;;;5.03;100.00
20023;BME280;10172;42.054;24.546;2023-12-04T03:11:30;98742.00;;;4.82;100.00
20023;BME280;10172;42.054;24.546;2023-12-04T03:13:55;98762.84;;;4.65;100.00
20023;BME280;10172;42.054;24.546;2023-12-04T03:16:20;98774.13;;;4.46;100.00
20023;BME280;10172;42.054;24.546;2023-12-04T03:18:46;98751.59;;;4.60;100.00
20023;BME280;10172;42.054;24.546;2023-12-04T03:21:12;98759.03;;;4.49;100.00
20023;BME280;10172;42.054;24.546;2023-12-04T03:23:37;98794.53;;;4.87;100.00
20023;BME280;10172;42.054;24.546;2023-12-04T03:26:03;98767.78;;;4.98;100.00
20023;BME280;10172;42.054;24.546;2023-12-04T03:28:28;98807.16;;;5.02;100.00
20023;BME280;10172;42.054;24.546;2023-12-04T03:30:54;98781.22;;;4.92;100.00
20023;BME280;10172;42.054;24.546;2023-12-04T03:33:19;98750.66;;;4.38;100.00
20023;BME280;10172;42.054;24.546;2023-12-04T03:35:46;98796.78;;;4.74;100.00
20023;BME280;10172;42.054;24.546;2023-12-04T03:38:11;98679.09;;;4.27;100.00
20023;BME280;10172;42.054;24.546;2023-12-04T03:40:37;98774.28;;;4.89;100.00
20023;BME280;10172;42.054;24.546;2023-12-04T03:43:02;98776.44;;;4.78;100.00
20023;BME280;10172;42.054;24.546;2023-12-04T03:45:28;98809.56;;;5.08;100.00
20023;BME280;10172;42.054;24.546;2023-12-04T03:47:53;98792.91;;;4.60;100.00
20023;BME280;10172;42.054;24.546;2023-12-04T03:50:19;98816.56;;;4.37;100.00
20023;BME280;10172;42.054;24.546;2023-12-04T03:52:44;98807.75;;;4.13;100.00
20023;BME280;10172;42.054;24.546;2023-12-04T03:55:09;98769.59;;;4.00;100.00
20023;BME280;10172;42.054;24.546;2023-12-04T03:57:35;98829.00;;;4.58;100.00
20023;BME280;10172;42.054;24.546;2023-12-04T04:00:00;98764.09;;;4.31;100.00
20023;BME280;10172;42.054;24.546;2023-12-04T04:02:26;98797.06;;;4.67;100.00
20023;BME280;10172;42.054;24.546;2023-12-04T04:04:51;98805.66;;;4.47;100.00
20023;BME280;10172;42.054;24.546;2023-12-04T04:07:17;98810.28;;;4.41;100.00
20023;BME280;10172;42.054;24.546;2023-12-04T04:09:43;98810.63;;;4.56;100.00
20023;BME280;10172;42.054;24.546;2023-12-04T04:12:08;98850.28;;;4.76;100.00
20023;BME280;10172;42.054;24.546;2023-12-04T04:14:34;98808.75;;;4.35;100.00
20023;BME280;10172;42.054;24.546;2023-12-04T04:16:59;98829.28;;;4.50;100.00
20023;BME280;10172;42.054;24.546;2023-12-04T04:19:24;98821.41;;;4.73;100.00
20023;BME280;10172;42.054;24.546;2023-12-04T04:21:50;98785.63;;;4.43;100.00
20023;BME280;10172;42.054;24.546;2023-12-04T04:24:15;98798.34;;;4.55;100.00
20023;BME280;10172;42.054;24.546;2023-12-04T04:26:40;98841.38;;;4.80;100.00
20023;BME280;10172;42.054;24.546;2023-12-04T04:29:06;98829.38;;;4.47;100.00
20023;BME280;10172;42.054;24.546;2023-12-04T04:31:31;98795.75;;;4.04;100.00
20023;BME280;10172;42.054;24.546;2023-12-04T04:33:56;98819.97;;;4.14;100.00
20023;BME280;10172;42.054;24.546;2023-12-04T04:36:22;98854.22;;;4.14;100.00
20023;BME280;10172;42.054;24.546;2023-12-04T04:38:47;98811.81;;;3.97;100.00
20023;BME280;10172;42.054;24.546;2023-12-04T04:41:13;98817.06;;;3.97;100.00
20023;BME280;10172;42.054;24.546;2023-12-04T04:43:40;98867.00;;;4.24;100.00
20023;BME280;10172;42.054;24.546;2023-12-04T04:46:05;98840.06;;;4.16;100.00
20023;BME280;10172;42.054;24.546;2023-12-04T04:48:31;98830.94;;;4.02;100.00
20023;BME280;10172;42.054;24.546;2023-12-04T04:50:56;98849.66;;;3.93;100.00
20023;BME280;10172;42.054;24.546;2023-12-04T04:53:21;98868.16;;;3.90;100.00
20023;BME280;10172;42.054;24.546;2023-12-04T04:55:47;98865.06;;;4.05;100.00
20023;BME280;10172;42.054;24.546;2023-12-04T04:58:12;98897.38;;;3.82;100.00
20023;BME280;10172;42.054;24.546;2023-12-04T05:00:38;98883.34;;;3.82;100.00
20023;BME280;10172;42.054;24.546;2023-12-04T05:03:03;98856.28;;;3.78;100.00
20023;BME280;10172;42.054;24.546;2023-12-04T05:05:28;98892.97;;;3.83;100.00
20023;BME280;10172;42.054;24.546;2023-12-04T05:07:54;98902.91;;;4.01;100.00
20023;BME280;10172;42.054;24.546;2023-12-04T05:10:19;98889.31;;;3.87;100.00
20023;BME280;10172;42.054;24.546;2023-12-04T05:12:44;98882.34;;;3.86;100.00
20023;BME280;10172;42.054;24.546;2023-12-04T05:15:10;98879.69;;;4.13;100.00
20023;BME280;10172;42.054;24.546;2023-12-04T05:17:35;98911.78;;;4.24;100.00
20023;BME280;10172;42.054;24.546;2023-12-04T05:20:01;98901.53;;;4.43;100.00
20023;BME280;10172;42.054;24.546;2023-12-04T05:22:26;98910.16;;;4.47;100.00
20023;BME280;10172;42.054;24.546;2023-12-04T05:24:51;98900.56;;;4.46;100.00
20023;BME280;10172;42.054;24.546;2023-12-04T05:27:17;98911.41;;;4.10;100.00
20023;BME280;10172;42.054;24.546;2023-12-04T05:29:42;98891.69;;;4.22;100.00
20023;BME280;10172;42.054;24.546;2023-12-04T05:32:07;98880.91;;;4.30;100.00
20023;BME280;10172;42.054;24.546;2023-12-04T05:34:33;98878.41;;;3.99;100.00
20023;BME280;10172;42.054;24.546;2023-12-04T05:36:58;98895.06;;;4.27;100.00
20023;BME280;10172;42.054;24.546;2023-12-04T05:39:24;98922.31;;;4.24;100.00
20023;BME280;10172;42.054;24.546;2023-12-04T05:41:49;98915.44;;;4.20;100.00
20023;BME280;10172;42.054;24.546;2023-12-04T05:44:14;98920.28;;;4.06;100.00
20023;BME280;10172;42.054;24.546;2023-12-04T05:46:40;98921.31;;;4.02;100.00
20023;BME280;10172;42.054;24.546;2023-12-04T05:49:05;98877.50;;;4.00;100.00
20023;BME280;10172;42.054;24.546;2023-12-04T05:51:30;98911.75;;;4.00;100.00
20023;BME280;10172;42.054;24.546;2023-12-04T05:53:56;98924.06;;;3.70;100.00
20023;BME280;10172;42.054;24.546;2023-12-04T05:56:21;98938.16;;;3.97;100.00
20023;BME280;10172;42.054;24.546;2023-12-04T05:58:47;98897.34;;;3.84;100.00
20023;BME280;10172;42.054;24.546;2023-12-04T06:01:12;98919.03;;;4.44;100.00
20023;BME280;10172;42.054;24.546;2023-12-04T06:03:38;98950.78;;;4.67;100.00
20023;BME280;10172;42.054;24.546;2023-12-04T06:06:04;98929.59;;;4.44;100.00
20023;BME280;10172;42.054;24.546;2023-12-04T06:08:29;98948.44;;;4.58;100.00
20023;BME280;10172;42.054;24.546;2023-12-04T06:10:55;98963.16;;;3.82;100.00
20023;BME280;10172;42.054;24.546;2023-12-04T06:13:21;98961.47;;;3.80;100.00
20023;BME280;10172;42.054;24.546;2023-12-04T06:15:46;98936.81;;;3.84;100.00
20023;BME280;10172;42.054;24.546;2023-12-04T06:18:12;98960.28;;;3.90;100.00
20023;BME280;10172;42.054;24.546;2023-12-04T06:20:37;98970.91;;;4.16;100.00
20023;BME280;10172;42.054;24.546;2023-12-04T06:23:03;98964.75;;;4.43;100.00
20023;BME280;10172;42.054;24.546;2023-12-04T06:25:28;98944.44;;;4.19;100.00
20023;BME280;10172;42.054;24.546;2023-12-04T06:27:54;98949.84;;;4.16;100.00
20023;BME280;10172;42.054;24.546;2023-12-04T06:30:20;98984.00;;;4.71;100.00
20023;BME280;10172;42.054;24.546;2023-12-04T06:32:45;98989.50;;;4.92;100.00
20023;BME280;10172;42.054;24.546;2023-12-04T06:35:12;98989.94;;;4.78;100.00
20023;BME280;10172;42.054;24.546;2023-12-04T06:37:38;99003.41;;;4.95;100.00
20023;BME280;10172;42.054;24.546;2023-12-04T06:40:05;99002.78;;;4.89;100.00
20023;BME280;10172;42.054;24.546;2023-12-04T06:42:34;98979.44;;;4.76;100.00
20023;BME280;10172;42.054;24.546;2023-12-04T06:45:00;99019.13;;;4.46;100.00
20023;BME280;10172;42.054;24.546;2023-12-04T06:47:26;98989.47;;;4.11;100.00
20023;BME280;10172;42.054;24.546;2023-12-04T06:49:53;98991.66;;;4.25;100.00
20023;BME280;10172;42.054;24.546;2023-12-04T06:52:18;99006.03;;;4.15;100.00
20023;BME280;10172;42.054;24.546;2023-12-04T06:54:44;99024.06;;;4.56;100.00
20023;BME280;10172;42.054;24.546;2023-12-04T06:57:09;99001.81;;;4.37;100.00
20023;BME280;10172;42.054;24.546;2023-12-04T06:59:35;98974.72;;;4.60;100.00
20023;BME280;10172;42.054;24.546;2023-12-04T07:02:00;99003.88;;;4.81;100.00
20023;BME280;10172;42.054;24.546;2023-12-04T07:04:25;98981.19;;;4.51;100.00
20023;BME280;10172;42.054;24.546;2023-12-04T07:06:51;98960.91;;;4.53;100.00
20023;BME280;10172;42.054;24.546;2023-12-04T07:09:16;98982.78;;;4.81;100.00
20023;BME280;10172;42.054;24.546;2023-12-04T07:11:42;98999.56;;;5.05;100.00
20023;BME280;10172;42.054;24.546;2023-12-04T07:14:07;98995.50;;;5.20;100.00
20023;BME280;10172;42.054;24.546;2023-12-04T07:16:42;99017.31;;;5.25;100.00
20023;BME280;10172;42.054;24.546;2023-12-04T07:19:09;98966.84;;;4.84;100.00
20023;BME280;10172;42.054;24.546;2023-12-04T07:21:35;98985.47;;;4.80;100.00
20023;BME280;10172;42.054;24.546;2023-12-04T07:24:00;98998.84;;;4.74;100.00
20023;BME280;10172;42.054;24.546;2023-12-04T07:26:26;98980.34;;;5.02;100.00
20023;BME280;10172;42.054;24.546;2023-12-04T07:28:51;99017.19;;;5.29;100.00
20023;BME280;10172;42.054;24.546;2023-12-04T07:31:16;98976.72;;;4.79;100.00
20023;BME280;10172;42.054;24.546;2023-12-04T07:33:43;99004.28;;;4.96;100.00
20023;BME280;10172;42.054;24.546;2023-12-04T07:36:08;99004.44;;;4.91;100.00
20023;BME280;10172;42.054;24.546;2023-12-04T07:38:34;98968.72;;;5.07;100.00
20023;BME280;10172;42.054;24.546;2023-12-04T07:40:59;99013.28;;;5.15;100.00
20023;BME280;10172;42.054;24.546;2023-12-04T07:43:24;98962.19;;;5.17;100.00
20023;BME280;10172;42.054;24.546;2023-12-04T07:45:50;98998.78;;;5.02;100.00
20023;BME280;10172;42.054;24.546;2023-12-04T07:48:15;98959.41;;;4.71;100.00
20023;BME280;10172;42.054;24.546;2023-12-04T07:50:42;98971.72;;;4.44;100.00
20023;BME280;10172;42.054;24.546;2023-12-04T07:53:07;99009.13;;;4.81;100.00
20023;BME280;10172;42.054;24.546;2023-12-04T07:55:37;99008.00;;;5.15;100.00
20023;BME280;10172;42.054;24.546;2023-12-04T07:58:02;99002.19;;;5.05;100.00
20023;BME280;10172;42.054;24.546;2023-12-04T08:00:28;99002.16;;;4.80;100.00
20023;BME280;10172;42.054;24.546;2023-12-04T08:02:53;99003.03;;;5.06;100.00
20023;BME280;10172;42.054;24.546;2023-12-04T08:05:18;98992.38;;;5.09;100.00
20023;BME280;10172;42.054;24.546;2023-12-04T08:07:44;98996.16;;;5.02;100.00
20023;BME280;10172;42.054;24.546;2023-12-04T08:10:10;99016.41;;;5.26;100.00
20023;BME280;10172;42.054;24.546;2023-12-04T08:12:35;98986.41;;;5.04;100.00
20023;BME280;10172;42.054;24.546;2023-12-04T08:15:03;99001.81;;;5.16;100.00
20023;BME280;10172;42.054;24.546;2023-12-04T08:17:29;99016.41;;;5.26;100.00
20023;BME280;10172;42.054;24.546;2023-12-04T08:19:54;98983.00;;;5.26;100.00
20023;BME280;10172;42.054;24.546;2023-12-04T08:22:19;98955.16;;;5.41;100.00
20023;BME280;10172;42.054;24.546;2023-12-04T08:24:45;99002.56;;;5.44;100.00
20023;BME280;10172;42.054;24.546;2023-12-04T08:27:10;98988.66;;;5.16;100.00
20023;BME280;10172;42.054;24.546;2023-12-04T08:29:35;98992.97;;;5.17;100.00
20023;BME280;10172;42.054;24.546;2023-12-04T08:32:01;99003.25;;;5.49;100.00
20023;BME280;10172;42.054;24.546;2023-12-04T08:34:26;98902.28;;;5.21;100.00
20023;BME280;10172;42.054;24.546;2023-12-04T08:36:52;98976.59;;;5.80;100.00
20023;BME280;10172;42.054;24.546;2023-12-04T08:39:18;98999.13;;;5.65;100.00
20023;BME280;10172;42.054;24.546;2023-12-04T08:41:46;98984.44;;;5.81;100.00
20023;BME280;10172;42.054;24.546;2023-12-04T08:44:14;99027.38;;;6.78;100.00
20023;BME280;10172;42.054;24.546;2023-12-04T08:46:40;98985.72;;;7.03;100.00
20023;BME280;10172;42.054;24.546;2023-12-04T08:49:05;99004.72;;;7.53;100.00
20023;BME280;10172;42.054;24.546;2023-12-04T08:51:31;98995.69;;;6.76;100.00
20023;BME280;10172;42.054;24.546;2023-12-04T08:53:56;98986.22;;;6.71;100.00
20023;BME280;10172;42.054;24.546;2023-12-04T08:56:22;98968.44;;;6.74;100.00
20023;BME280;10172;42.054;24.546;2023-12-04T08:58:47;99004.06;;;7.48;100.00
20023;BME280;10172;42.054;24.546;2023-12-04T09:01:15;98999.25;;;7.76;100.00
20023;BME280;10172;42.054;24.546;2023-12-04T09:03:40;99006.56;;;7.90;100.00
20023;BME280;10172;42.054;24.546;2023-12-04T09:06:06;99007.94;;;7.98;100.00
20023;BME280;10172;42.054;24.546;2023-12-04T09:08:31;99013.28;;;7.59;100.00
20023;BME280;10172;42.054;24.546;2023-12-04T09:10:58;99020.41;;;7.57;100.00
20023;BME280;10172;42.054;24.546;2023-12-04T09:13:23;98988.09;;;7.49;100.00
20023;BME280;10172;42.054;24.546;2023-12-04T09:15:49;99003.44;;;7.43;100.00
20023;BME280;10172;42.054;24.546;2023-12-04T09:18:14;98967.97;;;7.27;100.00
20023;BME280;10172;42.054;24.546;2023-12-04T09:20:41;98964.66;;;7.21;100.00
20023;BME280;10172;42.054;24.546;2023-12-04T09:23:06;98982.03;;;7.86;100.00
20023;BME280;10172;42.054;24.546;2023-12-04T09:25:31;98962.72;;;5.98;100.00
20023;BME280;10172;42.054;24.546;2023-12-04T09:27:57;98981.44;;;6.58;100.00
20023;BME280;10172;42.054;24.546;2023-12-04T09:30:22;98977.63;;;7.07;100.00
20023;BME280;10172;42.054;24.546;2023-12-04T09:32:48;98969.25;;;7.57;100.00
20023;BME280;10172;42.054;24.546;2023-12-04T09:35:13;98980.13;;;8.08;100.00
20023;BME280;10172;42.054;24.546;2023-12-04T09:37:38;98875.84;;;7.35;100.00
20023;BME280;10172;42.054;24.546;2023-12-04T09:40:04;98957.34;;;8.04;100.00
20023;BME280;10172;42.054;24.546;2023-12-04T09:42:30;98964.25;;;8.27;100.00
20023;BME280;10172;42.054;24.546;2023-12-04T09:44:58;98973.25;;;8.41;100.00
20023;BME280;10172;42.054;24.546;2023-12-04T09:47:24;98954.28;;;8.85;100.00
20023;BME280;10172;42.054;24.546;2023-12-04T09:49:51;98983.81;;;8.60;100.00
20023;BME280;10172;42.054;24.546;2023-12-04T09:52:18;98993.63;;;8.58;100.00
20023;BME280;10172;42.054;24.546;2023-12-04T09:54:44;98947.31;;;8.11;100.00
20023;BME280;10172;42.054;24.546;2023-12-04T09:57:10;98967.22;;;6.83;100.00
20023;BME280;10172;42.054;24.546;2023-12-04T09:59:35;98954.44;;;6.72;100.00
20023;BME280;10172;42.054;24.546;2023-12-04T10:02:01;98945.06;;;7.26;100.00
20023;BME280;10172;42.054;24.546;2023-12-04T10:04:26;98920.53;;;7.02;100.00
20023;BME280;10172;42.054;24.546;2023-12-04T10:06:52;98952.84;;;6.46;100.00
20023;BME280;10172;42.054;24.546;2023-12-04T10:09:18;98943.22;;;6.87;100.00
20023;BME280;10172;42.054;24.546;2023-12-04T10:11:45;98913.34;;;7.05;100.00
20023;BME280;10172;42.054;24.546;2023-12-04T10:14:18;98974.09;;;7.86;100.00
20023;BME280;10172;42.054;24.546;2023-12-04T10:16:45;98941.50;;;7.27;100.00
20023;BME280;10172;42.054;24.546;2023-12-04T10:19:19;98962.28;;;7.15;100.00
20023;BME280;10172;42.054;24.546;2023-12-04T10:21:46;98848.44;;;6.16;100.00
20023;BME280;10172;42.054;24.546;2023-12-04T10:24:13;98943.28;;;6.86;100.00
20023;BME280;10172;42.054;24.546;2023-12-04T10:26:51;98966.59;;;6.76;100.00
20023;BME280;10172;42.054;24.546;2023-12-04T10:29:16;98978.94;;;7.38;100.00
20023;BME280;10172;42.054;24.546;2023-12-04T10:31:42;98952.25;;;7.42;100.00
20023;BME280;10172;42.054;24.546;2023-12-04T10:34:07;98949.63;;;7.81;100.00
20023;BME280;10172;42.054;24.546;2023-12-04T10:36:35;98929.97;;;7.66;100.00
20023;BME280;10172;42.054;24.546;2023-12-04T10:39:02;98949.22;;;8.26;100.00
20023;BME280;10172;42.054;24.546;2023-12-04T10:41:30;98959.25;;;7.82;100.00
20023;BME280;10172;42.054;24.546;2023-12-04T10:43:56;98952.03;;;7.86;100.00
20023;BME280;10172;42.054;24.546;2023-12-04T10:46:24;98898.19;;;7.85;100.00
20023;BME280;10172;42.054;24.546;2023-12-04T10:48:49;98941.56;;;8.20;100.00
20023;BME280;10172;42.054;24.546;2023-12-04T10:51:16;98950.22;;;8.95;100.00
20023;BME280;10172;42.054;24.546;2023-12-04T10:53:42;98923.22;;;9.21;100.00
20023;BME280;10172;42.054;24.546;2023-12-04T10:56:15;98910.38;;;8.43;100.00
20023;BME280;10172;42.054;24.546;2023-12-04T10:58:44;98928.16;;;8.41;100.00
20023;BME280;10172;42.054;24.546;2023-12-04T11:01:12;98934.47;;;8.92;100.00
20023;BME280;10172;42.054;24.546;2023-12-04T11:03:44;98942.75;;;10.01;100.00
20023;BME280;10172;42.054;24.546;2023-12-04T11:06:11;98917.28;;;9.16;100.00
20023;BME280;10172;42.054;24.546;2023-12-04T11:08:39;98953.41;;;8.67;100.00
20023;BME280;10172;42.054;24.546;2023-12-04T11:11:12;98929.41;;;9.05;100.00
20023;BME280;10172;42.054;24.546;2023-12-04T11:13:41;98957.53;;;10.07;100.00
20023;BME280;10172;42.054;24.546;2023-12-04T11:16:20;98945.69;;;9.97;99.72
20023;BME280;10172;42.054;24.546;2023-12-04T11:18:51;98903.94;;;9.99;100.00
20023;BME280;10172;42.054;24.546;2023-12-04T11:21:20;98930.94;;;9.91;100.00
20023;BME280;10172;42.054;24.546;2023-12-04T11:23:46;98921.06;;;10.09;100.00
20023;BME280;10172;42.054;24.546;2023-12-04T11:26:12;98927.63;;;9.71;100.00
20023;BME280;10172;42.054;24.546;2023-12-04T11:28:37;98925.50;;;9.77;100.00
20023;BME280;10172;42.054;24.546;2023-12-04T11:31:04;98943.66;;;9.36;100.00
20023;BME280;10172;42.054;24.546;2023-12-04T11:33:36;98951.72;;;9.68;100.00
20023;BME280;10172;42.054;24.546;2023-12-04T11:36:07;98899.22;;;10.04;100.00
20023;BME280;10172;42.054;24.546;2023-12-04T11:38:32;98940.22;;;10.00;100.00
20023;BME280;10172;42.054;24.546;2023-12-04T11:40:58;98917.91;;;8.87;100.00
20023;BME280;10172;42.054;24.546;2023-12-04T11:43:25;98956.47;;;9.28;100.00
20023;BME280;10172;42.054;24.546;2023-12-04T11:45:51;98969.16;;;9.89;100.00
20023;BME280;10172;42.054;24.546;2023-12-04T11:48:22;98941.44;;;9.44;100.00
20023;BME280;10172;42.054;24.546;2023-12-04T11:50:48;98926.72;;;9.54;100.00
20023;BME280;10172;42.054;24.546;2023-12-04T11:53:14;98940.06;;;9.70;100.00
20023;BME280;10172;42.054;24.546;2023-12-04T11:55:40;98956.34;;;10.28;100.00
20023;BME280;10172;42.054;24.546;2023-12-04T11:58:11;98950.84;;;10.47;96.75
20023;BME280;10172;42.054;24.546;2023-12-04T12:00:37;98964.66;;;9.74;99.64
20023;BME280;10172;42.054;24.546;2023-12-04T12:03:06;98938.94;;;9.58;100.00
20023;BME280;10172;42.054;24.546;2023-12-04T12:05:34;98956.47;;;9.28;100.00
20023;BME280;10172;42.054;24.546;2023-12-04T12:08:03;98929.50;;;9.69;100.00
20023;BME280;10172;42.054;24.546;2023-12-04T12:10:29;98978.44;;;9.97;100.00
20023;BME280;10172;42.054;24.546;2023-12-04T12:12:55;98936.22;;;9.76;94.72
20023;BME280;10172;42.054;24.546;2023-12-04T12:15:21;98939.50;;;9.81;97.50
20023;BME280;10172;42.054;24.546;2023-12-04T12:17:47;98921.41;;;9.87;98.89
20023;BME280;10172;42.054;24.546;2023-12-04T12:20:14;98935.22;;;11.02;91.97
20023;BME280;10172;42.054;24.546;2023-12-04T12:22:40;98955.53;;;11.76;91.54
20023;BME280;10172;42.054;24.546;2023-12-04T12:25:09;98935.31;;;12.15;86.22
20023;BME280;10172;42.054;24.546;2023-12-04T12:27:36;98925.34;;;11.04;95.45
20023;BME280;10172;42.054;24.546;2023-12-04T12:30:01;98891.19;;;10.21;92.92
20023;BME280;10172;42.054;24.546;2023-12-04T12:32:28;98916.72;;;10.08;100.00
20023;BME280;10172;42.054;24.546;2023-12-04T12:34:54;98906.88;;;10.71;94.42
20023;BME280;10172;42.054;24.546;2023-12-04T12:37:20;98902.59;;;11.56;88.90
20023;BME280;10172;42.054;24.546;2023-12-04T12:39:46;98898.31;;;11.82;85.54
20023;BME280;10172;42.054;24.546;2023-12-04T12:42:11;98884.19;;;12.08;86.05
20023;BME280;10172;42.054;24.546;2023-12-04T12:44:38;98888.88;;;12.05;83.02